createdAt,value
2022-10-11T00:00:19.674Z,4.13
2022-10-11T00:02:46.910Z,4.05
2022-10-11T00:05:14.167Z,3.75
2022-10-11T00:07:41.407Z,4.50
2022-10-11T00:10:09.991Z,4.50
2022-10-11T00:12:37.301Z,6.13
2022-10-11T00:15:07.130Z,4.30
2022-10-11T00:17:35.119Z,3.83
2022-10-11T00:20:02.329Z,4.15
2022-10-11T00:22:29.503Z,4.30
2022-10-11T00:24:58.753Z,3.72
2022-10-11T00:27:26.068Z,3.95
2022-10-11T00:29:53.899Z,3.70
2022-10-11T00:32:21.123Z,4.10
2022-10-11T00:34:48.423Z,4.22
2022-10-11T00:37:15.599Z,4.57
2022-10-11T00:39:42.931Z,4.15
2022-10-11T00:42:17.505Z,4.47
2022-10-11T00:44:48.120Z,4.50
2022-10-11T00:50:01.735Z,4.18
2022-10-11T00:52:42.131Z,4.25
2022-10-11T00:55:17.103Z,4.72
2022-10-11T00:57:48.684Z,4.90
2022-10-11T01:00:16.813Z,4.82
2022-10-11T01:02:44.302Z,5.18
2022-10-11T01:05:32.226Z,4.43
2022-10-11T01:08:00.914Z,4.90
2022-10-11T01:10:29.134Z,4.63
2022-10-11T01:13:25.850Z,5.18
2022-10-11T01:16:10.488Z,5.25
2022-10-11T01:18:48.393Z,4.80
2022-10-11T01:21:46.785Z,5.30
2022-10-11T01:24:20.343Z,4.47
2022-10-11T01:27:06.554Z,5.20
2022-10-11T01:29:57.211Z,4.75
2022-10-11T01:32:38.700Z,5.38
2022-10-11T01:35:24.650Z,5.43
2022-10-11T01:38:08.058Z,5.50
2022-10-11T01:40:51.364Z,4.88
2022-10-11T01:43:20.545Z,5.18
2022-10-11T01:45:52.653Z,5.97
2022-10-11T01:48:19.987Z,5.75
2022-10-11T01:50:50.381Z,4.70
2022-10-11T01:53:35.886Z,5.60
2022-10-11T01:56:30.309Z,6.22
2022-10-11T01:59:22.296Z,5.30
2022-10-11T02:02:37.595Z,5.85
2022-10-11T02:05:40.233Z,5.93
2022-10-11T02:08:20.276Z,5.50
2022-10-11T02:11:19.880Z,5.93
2022-10-11T02:14:06.784Z,5.93
2022-10-11T02:16:44.020Z,5.20
2022-10-11T02:19:17.159Z,4.85
2022-10-11T02:21:47.448Z,6.30
2022-10-11T02:24:27.313Z,5.32
2022-10-11T02:26:57.391Z,5.97
2022-10-11T02:29:30.646Z,5.65
2022-10-11T02:32:00.693Z,5.15
2022-10-11T02:34:44.938Z,4.80
2022-10-11T02:37:40.467Z,5.03
2022-10-11T02:40:32.079Z,4.90
2022-10-11T02:43:18.265Z,4.55
2022-10-11T02:46:00.244Z,4.90
2022-10-11T02:48:29.447Z,5.35
2022-10-11T02:50:58.784Z,4.75
2022-10-11T02:53:27.247Z,4.65
2022-10-11T02:55:56.024Z,5.25
2022-10-11T02:58:24.685Z,5.38
2022-10-11T03:00:52.092Z,4.63
2022-10-11T03:03:19.470Z,5.88
2022-10-11T03:05:46.699Z,5.25
2022-10-11T03:08:16.453Z,4.75
2022-10-11T03:10:44.336Z,5.72
2022-10-11T03:13:14.825Z,4.65
2022-10-11T03:15:47.927Z,5.22
2022-10-11T03:18:15.811Z,4.95
2022-10-11T03:20:43.379Z,5.35
2022-10-11T03:23:11.451Z,5.65
2022-10-11T03:25:39.322Z,6.13
2022-10-11T03:28:06.792Z,5.32
2022-10-11T03:30:34.138Z,6.68
2022-10-11T03:33:01.411Z,5.25
2022-10-11T03:35:28.604Z,5.70
2022-10-11T03:37:55.791Z,5.47
2022-10-11T03:40:22.929Z,5.15
2022-10-11T03:42:50.412Z,5.20
2022-10-11T03:45:17.750Z,5.25
2022-10-11T03:47:44.930Z,5.90
2022-10-11T03:50:12.189Z,5.57
2022-10-11T03:52:39.486Z,5.40
2022-10-11T03:55:07.386Z,6.03
2022-10-11T03:57:34.646Z,6.22
2022-10-11T04:00:01.860Z,5.78
2022-10-11T04:02:29.195Z,5.88
2022-10-11T04:04:56.421Z,7.40
2022-10-11T04:07:23.680Z,5.93
2022-10-11T04:09:52.179Z,6.07
2022-10-11T04:12:19.897Z,5.97
2022-10-11T04:14:47.076Z,6.20
2022-10-11T04:17:14.304Z,6.53
2022-10-11T04:19:41.508Z,5.28
2022-10-11T04:22:09.052Z,5.75
2022-10-11T04:24:36.474Z,5.20
2022-10-11T04:27:03.840Z,6.57
2022-10-11T04:29:32.735Z,5.60
2022-10-11T04:32:00.499Z,6.07
2022-10-11T04:34:27.796Z,5.13
2022-10-11T04:36:55.053Z,5.85
2022-10-11T04:39:22.340Z,5.75
2022-10-11T04:41:49.564Z,6.25
2022-10-11T04:44:16.812Z,5.88
2022-10-11T04:46:44.155Z,6.20
2022-10-11T04:49:11.603Z,6.00
2022-10-11T04:51:38.845Z,6.72
2022-10-11T04:54:06.097Z,6.18
2022-10-11T04:56:33.483Z,5.90
2022-10-11T04:59:00.941Z,5.57
2022-10-11T05:01:28.186Z,6.97
2022-10-11T05:03:55.558Z,6.30
2022-10-11T05:06:22.887Z,6.10
2022-10-11T05:08:50.378Z,6.07
2022-10-11T05:11:18.098Z,6.32
2022-10-11T05:13:46.810Z,5.80
2022-10-11T05:16:15.481Z,5.43
2022-10-11T05:18:43.477Z,6.43
2022-10-11T05:21:20.467Z,5.97
2022-10-11T05:23:50.242Z,5.82
2022-10-11T05:26:19.135Z,5.70
2022-10-11T05:28:47.476Z,6.55
2022-10-11T05:31:15.722Z,6.38
2022-10-11T05:33:44.367Z,7.78
2022-10-11T05:36:12.405Z,6.47
2022-10-11T05:38:40.251Z,6.00
2022-10-11T05:41:11.034Z,5.57
2022-10-11T05:43:38.378Z,6.05
2022-10-11T05:46:06.747Z,6.05
2022-10-11T05:48:34.466Z,5.97
2022-10-11T05:51:05.252Z,6.38
2022-10-11T05:53:33.181Z,6.57
2022-10-11T05:56:00.809Z,5.03
2022-10-11T05:58:28.114Z,5.38
2022-10-11T06:00:57.054Z,5.25
2022-10-11T06:03:24.572Z,5.43
2022-10-11T06:05:56.474Z,5.53
2022-10-11T06:08:24.357Z,6.35
2022-10-11T06:10:51.615Z,5.47
2022-10-11T06:13:18.952Z,6.47
2022-10-11T06:15:46.159Z,6.47
2022-10-11T06:18:13.896Z,6.90
2022-10-11T06:20:41.173Z,6.78
2022-10-11T06:23:08.377Z,7.03
2022-10-11T06:25:35.823Z,7.05
2022-10-11T06:28:03.162Z,6.72
2022-10-11T06:30:30.353Z,6.65
2022-10-11T06:33:02.397Z,6.45
2022-10-11T06:35:31.745Z,6.70
2022-10-11T06:37:59.017Z,6.68
2022-10-11T06:40:26.206Z,6.93
2022-10-11T06:42:53.429Z,6.38
2022-10-11T06:45:20.711Z,6.97
2022-10-11T06:47:47.838Z,6.95
2022-10-11T06:50:15.173Z,7.10
2022-10-11T06:52:42.383Z,7.03
2022-10-11T06:55:10.096Z,7.07
2022-10-11T06:57:37.437Z,7.47
2022-10-11T07:00:11.689Z,6.75
2022-10-11T07:02:39.895Z,7.80
2022-10-11T07:05:08.361Z,7.82
2022-10-11T07:07:35.638Z,7.60
2022-10-11T07:10:02.928Z,7.43
2022-10-11T07:12:30.178Z,7.53
2022-10-11T07:14:57.412Z,7.30
2022-10-11T07:17:25.578Z,7.00
2022-10-11T07:19:52.795Z,6.90
2022-10-11T07:22:19.942Z,6.82
2022-10-11T07:24:49.183Z,6.28
2022-10-11T07:27:16.420Z,6.68
2022-10-11T07:29:43.740Z,6.75
2022-10-11T07:32:11.256Z,5.90
2022-10-11T07:34:38.484Z,6.13
2022-10-11T07:37:05.804Z,6.32
2022-10-11T07:39:33.097Z,6.22
2022-10-11T07:42:00.568Z,6.03
2022-10-11T07:44:27.767Z,6.50
2022-10-11T07:46:54.972Z,6.60
2022-10-11T07:49:22.148Z,6.45
2022-10-11T07:51:49.420Z,6.78
2022-10-11T07:54:16.610Z,6.25
2022-10-11T07:56:43.752Z,6.13
2022-10-11T07:59:11.552Z,6.50
2022-10-11T08:01:38.908Z,6.38
2022-10-11T08:04:06.245Z,6.38
2022-10-11T08:06:33.474Z,6.35
2022-10-11T08:09:01.942Z,6.10
2022-10-11T08:11:33.525Z,5.93
2022-10-11T08:14:01.725Z,6.53
2022-10-11T08:16:29.211Z,6.00
2022-10-11T08:18:57.290Z,6.50
2022-10-11T08:21:26.921Z,5.93
2022-10-11T08:23:54.271Z,5.67
2022-10-11T08:26:22.244Z,5.90
2022-10-11T08:28:49.528Z,6.20
2022-10-11T08:31:16.942Z,5.97
2022-10-11T08:33:44.603Z,5.57
2022-10-11T08:36:12.664Z,6.82
2022-10-11T08:38:40.776Z,6.55
2022-10-11T08:42:32.631Z,6.55
2022-10-11T08:45:12.269Z,5.72
2022-10-11T08:47:45.837Z,6.25
2022-10-11T08:50:22.464Z,6.78
2022-10-11T08:52:59.713Z,6.55
2022-10-11T08:55:43.976Z,6.55
2022-10-11T08:58:19.611Z,6.07
2022-10-11T09:00:50.207Z,6.78
2022-10-11T09:06:26.630Z,7.95
2022-10-11T09:09:21.698Z,7.72
2022-10-11T09:12:12.014Z,7.70
2022-10-11T09:15:15.961Z,8.15
2022-10-11T09:18:14.251Z,8.90
2022-10-11T09:21:09.282Z,8.77
2022-10-11T09:23:43.925Z,8.30
2022-10-11T09:26:35.340Z,9.80
2022-10-11T09:29:07.107Z,9.20
2022-10-11T09:31:34.681Z,9.50
2022-10-11T09:34:14.444Z,10.15
2022-10-11T09:36:58.089Z,10.18
2022-10-11T09:39:39.922Z,10.30
2022-10-11T09:42:10.510Z,10.07
2022-10-11T09:47:27.216Z,10.80
2022-10-11T09:50:14.369Z,10.02
2022-10-11T09:52:54.201Z,10.48
2022-10-11T09:55:51.047Z,10.18
2022-10-11T09:58:32.937Z,9.45
2022-10-11T10:01:21.933Z,9.35
2022-10-11T10:04:08.857Z,11.00
2022-10-11T10:06:36.706Z,9.98
2022-10-11T10:09:25.714Z,9.23
2022-10-11T10:11:55.557Z,9.45
2022-10-11T10:14:30.776Z,9.13
2022-10-11T10:17:06.289Z,9.00
2022-10-11T10:19:45.044Z,8.60
2022-10-11T10:22:27.471Z,9.25
2022-10-11T10:24:56.337Z,9.60
2022-10-11T10:27:30.139Z,10.48
2022-10-11T10:30:13.699Z,9.85
2022-10-11T10:32:55.731Z,9.30
2022-10-11T10:35:53.801Z,10.98
2022-10-11T10:38:30.111Z,9.20
2022-10-11T10:41:04.350Z,8.63
2022-10-11T10:43:37.899Z,9.00
2022-10-11T10:46:20.059Z,9.45
2022-10-11T10:52:21.772Z,10.05
2022-10-11T10:55:07.725Z,9.90
2022-10-11T10:57:47.543Z,8.63
2022-10-11T11:00:22.985Z,8.73
2022-10-11T11:03:21.162Z,8.82
2022-10-11T11:06:06.495Z,8.50
2022-10-11T11:09:04.619Z,8.82
2022-10-11T11:11:42.005Z,7.90
2022-10-11T11:14:52.430Z,8.25
2022-10-11T11:17:52.368Z,10.50
2022-10-11T11:20:52.107Z,8.73
2022-10-11T11:23:54.228Z,9.30
2022-10-11T11:26:44.295Z,8.90
2022-10-11T11:29:43.785Z,9.57
2022-10-11T11:32:21.453Z,8.60
2022-10-11T11:35:01.216Z,9.07
2022-10-11T11:37:41.478Z,8.43
2022-10-11T11:40:34.930Z,8.65
2022-10-11T11:43:15.007Z,8.57
2022-10-11T11:46:38.572Z,8.55
2022-10-11T11:49:21.517Z,8.48
2022-10-11T11:51:50.426Z,8.43
2022-10-11T11:54:28.922Z,8.15
2022-10-11T11:57:02.520Z,8.27
2022-10-11T11:59:35.545Z,8.68
2022-10-11T12:02:41.768Z,8.70
2022-10-11T12:05:13.319Z,7.68
2022-10-11T12:08:08.384Z,7.70
2022-10-11T12:10:50.379Z,7.28
2022-10-11T12:13:51.454Z,8.30
2022-10-11T12:16:20.210Z,7.47
2022-10-11T12:19:14.446Z,8.25
2022-10-11T12:21:44.830Z,8.65
2022-10-11T12:24:21.141Z,8.73
2022-10-11T12:26:56.909Z,9.30
2022-10-11T12:29:44.922Z,8.60
2022-10-11T12:32:34.808Z,7.80
2022-10-11T12:35:33.576Z,8.50
2022-10-11T12:38:21.505Z,9.02
2022-10-11T12:41:17.019Z,8.20
2022-10-11T12:43:50.288Z,8.95
2022-10-11T12:46:29.369Z,8.90
2022-10-11T12:49:24.516Z,8.88
2022-10-11T12:52:17.743Z,9.10
2022-10-11T12:55:27.373Z,8.38
2022-10-11T12:58:24.046Z,8.70
2022-10-11T13:00:51.209Z,8.88
2022-10-11T13:03:39.561Z,8.75
2022-10-11T13:06:25.132Z,10.13
2022-10-11T13:09:07.186Z,10.00
2022-10-11T13:11:46.429Z,8.60
2022-10-11T13:14:21.998Z,7.28
2022-10-11T13:17:04.172Z,7.30
2022-10-11T13:19:36.585Z,7.25
2022-10-11T13:22:18.233Z,11.02
2022-10-11T13:24:45.603Z,8.32
2022-10-11T13:27:23.061Z,6.57
2022-10-11T13:29:54.312Z,6.97
2022-10-11T13:32:28.295Z,6.82
2022-10-11T13:35:01.516Z,6.95
2022-10-11T13:37:31.305Z,7.57
2022-10-11T13:39:59.283Z,6.80
2022-10-11T13:42:31.805Z,6.00
2022-10-11T13:45:00.810Z,6.15
2022-10-11T13:47:32.030Z,6.32
2022-10-11T13:50:15.884Z,4.40
2022-10-11T13:53:10.833Z,5.03
2022-10-11T13:56:07.971Z,4.53
2022-10-11T13:58:46.851Z,3.70
2022-10-11T14:01:28.367Z,4.50
2022-10-11T14:04:01.412Z,4.93
2022-10-11T14:06:56.157Z,7.50
2022-10-11T14:09:39.181Z,7.35
2022-10-11T14:12:31.956Z,8.07
2022-10-11T14:15:01.055Z,8.05
2022-10-11T14:17:44.410Z,7.70
2022-10-11T14:20:16.919Z,6.97
2022-10-11T14:22:44.457Z,8.65
2022-10-11T14:25:12.970Z,7.03
2022-10-11T14:27:40.779Z,7.85
2022-10-11T14:30:27.286Z,7.40
2022-10-11T14:32:59.498Z,7.60
2022-10-11T14:35:31.971Z,9.02
2022-10-11T14:37:59.557Z,8.80
2022-10-11T14:40:30.534Z,11.05
2022-10-11T14:42:58.185Z,9.32
2022-10-11T14:45:25.899Z,9.52
2022-10-11T14:47:53.606Z,10.80
2022-10-11T14:50:48.054Z,9.52
2022-10-11T14:53:15.662Z,8.93
2022-10-11T14:55:43.532Z,9.80
2022-10-11T14:58:14.749Z,8.90
2022-10-11T15:00:42.325Z,8.85
2022-10-11T15:03:09.946Z,8.00
2022-10-11T15:05:38.213Z,8.15
2022-10-11T15:08:07.634Z,9.05
2022-10-11T15:10:39.867Z,10.45
2022-10-11T15:13:08.641Z,8.63
2022-10-11T15:15:41.197Z,7.93
2022-10-11T15:18:12.616Z,7.85
2022-10-11T15:20:43.672Z,8.55
2022-10-11T15:23:12.228Z,7.88
2022-10-11T15:25:41.524Z,8.68
2022-10-11T15:28:28.777Z,8.40
2022-10-11T15:30:56.884Z,8.02
2022-10-11T15:33:25.676Z,8.30
2022-10-11T15:35:52.975Z,9.70
2022-10-11T15:38:24.809Z,8.73
2022-10-11T15:40:53.777Z,7.63
2022-10-11T15:43:24.778Z,7.50
2022-10-11T15:45:52.701Z,7.50
2022-10-11T15:48:22.960Z,8.02
2022-10-11T15:50:51.202Z,7.40
2022-10-11T15:53:37.087Z,8.20
2022-10-11T15:56:15.227Z,8.95
2022-10-11T15:58:43.077Z,10.13
2022-10-11T16:01:18.833Z,9.45
2022-10-11T16:03:48.581Z,8.70
2022-10-11T16:06:16.995Z,7.90
2022-10-11T16:08:44.319Z,6.88
2022-10-11T16:11:12.838Z,6.78
2022-10-11T16:13:40.508Z,7.53
2022-10-11T16:16:09.787Z,7.43
2022-10-11T16:18:37.619Z,9.53
2022-10-11T16:21:10.798Z,9.13
2022-10-11T16:23:38.790Z,9.15
2022-10-11T16:26:10.021Z,8.70
2022-10-11T16:28:37.864Z,9.13
2022-10-11T16:31:11.461Z,10.48
2022-10-11T16:33:45.948Z,12.32
2022-10-11T16:36:40.560Z,10.38
2022-10-11T16:39:14.301Z,10.35
2022-10-11T16:41:42.710Z,13.05
2022-10-11T16:44:18.590Z,16.15
2022-10-11T16:46:48.490Z,17.38
2022-10-11T16:49:25.985Z,17.95
2022-10-11T16:51:57.022Z,18.20
2022-10-11T16:54:24.397Z,18.38
2022-10-11T16:56:51.620Z,19.58
2022-10-11T16:59:19.500Z,17.15
2022-10-11T17:01:46.789Z,18.45
2022-10-11T17:04:14.273Z,16.52
2022-10-11T17:06:43.943Z,18.85
2022-10-11T17:09:11.762Z,17.25
2022-10-11T17:11:40.719Z,16.95
2022-10-11T17:14:08.245Z,14.35
2022-10-11T17:16:36.057Z,13.50
2022-10-11T17:19:03.983Z,12.48
2022-10-11T17:21:31.431Z,11.68
2022-10-11T17:23:58.947Z,12.07
2022-10-11T17:26:27.919Z,11.50
2022-10-11T17:28:58.157Z,12.63
2022-10-11T17:31:27.003Z,13.60
2022-10-11T17:33:54.960Z,13.73
2022-10-11T17:36:34.655Z,13.18
2022-10-11T17:39:07.198Z,12.47
2022-10-11T17:41:34.974Z,13.38
2022-10-11T17:44:03.226Z,12.82
2022-10-11T17:46:34.165Z,12.70
2022-10-11T17:49:05.503Z,12.20
2022-10-11T17:51:34.057Z,12.32
2022-10-11T17:54:01.564Z,11.32
2022-10-11T17:56:33.692Z,10.77
2022-10-11T17:59:03.971Z,11.30
2022-10-11T18:01:31.292Z,9.75
2022-10-11T18:04:03.170Z,8.63
2022-10-11T18:06:34.408Z,7.25
2022-10-11T18:09:03.375Z,7.85
2022-10-11T18:11:31.691Z,7.68
2022-10-11T18:13:59.353Z,9.57
2022-10-11T18:16:29.764Z,10.55
2022-10-11T18:18:58.321Z,10.98
2022-10-11T18:21:34.322Z,9.38
2022-10-11T18:24:06.074Z,8.80
2022-10-11T18:26:34.491Z,8.73
2022-10-11T18:29:01.772Z,8.95
2022-10-11T18:31:31.129Z,7.00
2022-10-11T18:33:58.777Z,7.93
2022-10-11T18:36:28.976Z,10.15
2022-10-11T18:39:05.559Z,10.23
2022-10-11T18:41:35.312Z,11.02
2022-10-11T18:44:06.788Z,10.20
2022-10-11T18:46:34.959Z,10.07
2022-10-11T18:49:02.944Z,9.80
2022-10-11T18:51:39.820Z,10.68
2022-10-11T18:54:12.052Z,11.10
2022-10-11T18:56:41.703Z,10.50
2022-10-11T18:59:10.217Z,10.10
2022-10-11T19:01:42.087Z,10.57
2022-10-11T19:04:12.804Z,11.93
2022-10-11T19:06:44.663Z,12.05
2022-10-11T19:09:24.521Z,11.77
2022-10-11T19:11:57.574Z,12.37
2022-10-11T19:14:29.078Z,11.23
2022-10-11T19:16:58.121Z,12.55
2022-10-11T19:19:29.388Z,14.32
2022-10-11T19:21:57.056Z,15.18
2022-10-11T19:24:27.127Z,15.07
2022-10-11T19:26:59.726Z,14.38
2022-10-11T19:29:29.789Z,19.15
2022-10-11T19:32:00.697Z,22.08
2022-10-11T19:34:28.963Z,23.23
2022-10-11T19:36:57.311Z,21.50
2022-10-11T19:39:25.595Z,22.58
2022-10-11T19:41:54.017Z,19.40
2022-10-11T19:44:21.509Z,17.27
2022-10-11T19:46:52.762Z,18.20
2022-10-11T19:49:25.914Z,16.52
2022-10-11T19:51:55.567Z,18.58
2022-10-11T19:54:23.913Z,14.87
2022-10-11T19:56:51.634Z,16.50
2022-10-11T19:59:19.184Z,16.83
2022-10-11T20:01:52.258Z,17.48
2022-10-11T20:07:08.041Z,18.67
2022-10-11T20:09:35.364Z,17.35
2022-10-11T20:12:02.900Z,18.60
2022-10-11T20:14:30.319Z,19.00
2022-10-11T20:16:58.126Z,21.67
2022-10-11T20:19:31.034Z,26.13
2022-10-11T20:22:00.565Z,27.70
2022-10-11T20:24:33.050Z,25.33
2022-10-11T20:27:04.117Z,22.98
2022-10-11T20:29:31.814Z,23.80
2022-10-11T20:31:59.142Z,20.42
2022-10-11T20:34:27.808Z,21.50
2022-10-11T20:36:55.321Z,21.50
2022-10-11T20:39:23.675Z,20.20
2022-10-11T20:41:51.250Z,20.25
2022-10-11T20:44:18.717Z,18.60
2022-10-11T20:46:46.081Z,17.90
2022-10-11T20:49:13.480Z,18.70
2022-10-11T20:51:42.909Z,17.77
2022-10-11T20:54:11.054Z,21.10
2022-10-11T20:56:38.867Z,20.55
2022-10-11T20:59:06.777Z,18.30
2022-10-11T21:01:40.341Z,20.88
2022-10-11T21:04:17.375Z,20.85
2022-10-11T21:06:44.822Z,18.92
2022-10-11T21:09:15.463Z,16.55
2022-10-11T21:11:44.123Z,16.73
2022-10-11T21:14:11.768Z,18.20
2022-10-11T21:16:39.355Z,17.60
2022-10-11T21:19:06.643Z,15.82
2022-10-11T21:21:34.756Z,16.88
2022-10-11T21:24:02.741Z,15.25
2022-10-11T21:26:31.107Z,16.30
2022-10-11T21:29:04.043Z,15.63
2022-10-11T21:31:34.390Z,13.43
2022-10-11T21:34:02.790Z,13.38
2022-10-11T21:36:31.033Z,14.10
2022-10-11T21:38:58.395Z,14.20
2022-10-11T21:41:30.164Z,15.60
2022-10-11T21:43:58.201Z,15.88
2022-10-11T21:47:01.252Z,15.05
2022-10-11T21:49:20.113Z,15.25
2022-10-11T21:51:47.405Z,12.63
2022-10-11T21:54:14.673Z,14.00
2022-10-11T21:56:42.717Z,12.93
2022-10-11T21:59:12.435Z,14.80
2022-10-11T22:01:41.145Z,14.48
2022-10-11T22:04:08.522Z,13.38
2022-10-11T22:06:37.469Z,12.95
2022-10-11T22:09:06.547Z,12.20
2022-10-11T22:11:33.929Z,13.43
2022-10-11T22:14:01.267Z,15.05
2022-10-11T22:16:28.439Z,14.27
2022-10-11T22:18:55.694Z,12.32
2022-10-11T22:21:24.739Z,13.10
2022-10-11T22:23:54.151Z,12.55
2022-10-11T22:26:25.832Z,13.65
2022-10-11T22:28:53.490Z,13.02
2022-10-11T22:31:21.577Z,12.77
2022-10-11T22:33:52.840Z,13.13
2022-10-11T22:36:20.102Z,13.18
2022-10-11T22:38:47.784Z,12.57
2022-10-11T22:41:15.085Z,13.48
2022-10-11T22:43:42.676Z,14.52
2022-10-11T22:46:10.826Z,13.05
2022-10-11T22:48:38.221Z,13.63
2022-10-11T22:51:05.757Z,14.52
2022-10-11T22:53:33.325Z,15.02
2022-10-11T22:56:00.919Z,13.82
2022-10-11T22:58:28.348Z,16.35
2022-10-11T23:00:55.647Z,16.42
2022-10-11T23:03:23.028Z,15.63
2022-10-11T23:05:57.870Z,15.60
2022-10-11T23:08:26.107Z,14.05
2022-10-11T23:10:53.771Z,15.90
2022-10-11T23:13:21.162Z,16.42
2022-10-11T23:15:48.531Z,14.90
2022-10-11T23:18:17.226Z,15.50
2022-10-11T23:20:44.629Z,16.10
2022-10-11T23:23:11.805Z,16.98
2022-10-11T23:25:39.127Z,15.07
2022-10-11T23:28:06.351Z,16.58
2022-10-11T23:30:33.793Z,16.35
2022-10-11T23:33:01.058Z,16.58
2022-10-11T23:35:28.188Z,15.27
2022-10-11T23:37:55.455Z,15.88
2022-10-11T23:40:22.743Z,15.02
2022-10-11T23:42:49.996Z,13.88
2022-10-11T23:45:17.224Z,13.90
2022-10-11T23:47:44.392Z,14.25
2022-10-11T23:50:11.617Z,14.88
2022-10-11T23:52:38.883Z,12.60
2022-10-11T23:55:06.435Z,15.38
2022-10-11T23:57:34.140Z,14.48
